Shirley P. Settoon — WDF9252 — position and weather

sailwx.info

Track history (hours):
 
Tides and Currents Weather Stations Pressure Air Temp Water Temp Dewpoint Dewpoint Depression Visibility Wind Speed Wind Dir Waves Ship Positions

Shirley P. Settoon

More information available from US FCC via Universal Licensing System and Coast Guard Vessel Documentation Center.

Last reported at 2014-Sep-07 11:19 UTC. Time now 2014-Sep-15 04:05 UTC.
Position N 30°07' W 091°02'.

Length 32 m.

Type: Towing. MMSI: 367503240.

Date/timePositionNaut miles runAvg speedWind from/ knotsBaromVisibWave heightAir tempDewpointWater temp
2014-Sep-07 11:19N 30°07' W 091°02'6 5.2
2014-Sep-07 10:11N 30°07' W 090°55'4 6.4
2014-Sep-07 09:33N 30°04' W 090°53'4 4.0
2014-Sep-07 08:30N 30°00' W 090°50'4 4.1
2014-Sep-07 07:33N 30°01' W 090°46'6 6.3
2014-Sep-07 06:33N 30°03' W 090°39'6 6.2
2014-Sep-07 05:33N 30°03' W 090°32'5 5.3
2014-Sep-07 04:33N 29°60' W 090°27'3 2.5
2014-Sep-07 03:33N 29°59' W 090°24'0 0.1
2014-Sep-07 02:33N 29°58' W 090°24'  
Track history (hours):
 
Tides and Currents Weather Stations Pressure Air Temp Water Temp Dewpoint Dewpoint Depression Visibility Wind Speed Wind Dir Waves Ship Positions

Shirley P. Settoon

More information available from US FCC via Universal Licensing System and Coast Guard Vessel Documentation Center.

Last reported at 2014-Sep-07 11:19 UTC. Time now 2014-Sep-15 04:05 UTC.
Position N 30°07' W 091°02'.

Length 32 m.

Type: Towing. MMSI: 367503240.

Date/timePositionNaut miles runAvg speedWind from/ knotsBaromVisibWave heightAir tempDewpointWater temp
2014-Sep-07 11:19N 30°07' W 091°02'6 5.2
2014-Sep-07 10:11N 30°07' W 090°55'4 6.4
2014-Sep-07 09:33N 30°04' W 090°53'4 4.0
2014-Sep-07 08:30N 30°00' W 090°50'4 4.1
2014-Sep-07 07:33N 30°01' W 090°46'6 6.3
2014-Sep-07 06:33N 30°03' W 090°39'6 6.2
2014-Sep-07 05:33N 30°03' W 090°32'5 5.3
2014-Sep-07 04:33N 29°60' W 090°27'3 2.5
2014-Sep-07 03:33N 29°59' W 090°24'0 0.1
2014-Sep-07 02:33N 29°58' W 090°24'  

Dump ship's entire track history